sensor_id;sensor_type;location;lat;lon;timestamp;temperature;humidity
19930;DHT22;10127;47.780;9.606;2024-01-16T00:00:31;-1.60;99.90
19930;DHT22;10127;47.780;9.606;2024-01-16T00:02:57;-1.80;99.90
19930;DHT22;10127;47.780;9.606;2024-01-16T00:05:22;-1.80;99.90
19930;DHT22;10127;47.780;9.606;2024-01-16T00:07:48;-1.50;99.90
19930;DHT22;10127;47.780;9.606;2024-01-16T00:10:14;-1.60;99.90
19930;DHT22;10127;47.780;9.606;2024-01-16T00:12:41;-1.70;99.90
19930;DHT22;10127;47.780;9.606;2024-01-16T00:15:07;-1.60;99.90
19930;DHT22;10127;47.780;9.606;2024-01-16T00:17:33;-1.30;99.90
19930;DHT22;10127;47.780;9.606;2024-01-16T00:19:58;-1.30;99.90
19930;DHT22;10127;47.780;9.606;2024-01-16T00:22:27;-1.50;99.90
19930;DHT22;10127;47.780;9.606;2024-01-16T00:24:53;-1.70;99.90
19930;DHT22;10127;47.780;9.606;2024-01-16T00:27:18;-1.80;99.90
19930;DHT22;10127;47.780;9.606;2024-01-16T00:29:44;-1.90;99.90
19930;DHT22;10127;47.780;9.606;2024-01-16T00:32:10;-1.90;99.90
19930;DHT22;10127;47.780;9.606;2024-01-16T00:34:35;-1.90;99.90
19930;DHT22;10127;47.780;9.606;2024-01-16T00:37:01;-2.00;99.90
19930;DHT22;10127;47.780;9.606;2024-01-16T00:39:26;-2.00;99.90
19930;DHT22;10127;47.780;9.606;2024-01-16T00:41:52;-2.00;99.90
19930;DHT22;10127;47.780;9.606;2024-01-16T00:44:17;-1.90;99.90
19930;DHT22;10127;47.780;9.606;2024-01-16T00:46:43;-1.80;99.90
19930;DHT22;10127;47.780;9.606;2024-01-16T00:49:08;-1.90;99.90
19930;DHT22;10127;47.780;9.606;2024-01-16T00:51:34;-1.90;99.90
19930;DHT22;10127;47.780;9.606;2024-01-16T00:54:00;-1.90;99.90
19930;DHT22;10127;47.780;9.606;2024-01-16T00:56:26;-1.90;99.90
19930;DHT22;10127;47.780;9.606;2024-01-16T00:58:53;-2.00;99.90
19930;DHT22;10127;47.780;9.606;2024-01-16T01:01:19;-2.00;99.90
19930;DHT22;10127;47.780;9.606;2024-01-16T01:03:45;-2.10;99.90
19930;DHT22;10127;47.780;9.606;2024-01-16T01:06:11;-2.10;99.90
19930;DHT22;10127;47.780;9.606;2024-01-16T01:08:37;-2.20;99.90
19930;DHT22;10127;47.780;9.606;2024-01-16T01:11:03;-2.20;99.90
19930;DHT22;10127;47.780;9.606;2024-01-16T01:13:28;-2.30;99.90
19930;DHT22;10127;47.780;9.606;2024-01-16T01:15:54;-2.50;99.90
19930;DHT22;10127;47.780;9.606;2024-01-16T01:18:19;-2.60;99.90
19930;DHT22;10127;47.780;9.606;2024-01-16T01:20:45;-2.40;99.90
19930;DHT22;10127;47.780;9.606;2024-01-16T01:23:11;-2.30;99.90
19930;DHT22;10127;47.780;9.606;2024-01-16T01:25:36;-2.20;99.90
19930;DHT22;10127;47.780;9.606;2024-01-16T01:28:02;-2.20;99.90
19930;DHT22;10127;47.780;9.606;2024-01-16T01:30:28;-2.30;99.90
19930;DHT22;10127;47.780;9.606;2024-01-16T01:32:53;-2.30;99.90
19930;DHT22;10127;47.780;9.606;2024-01-16T01:35:19;-2.40;99.90
19930;DHT22;10127;47.780;9.606;2024-01-16T01:37:45;-2.40;99.90
19930;DHT22;10127;47.780;9.606;2024-01-16T01:40:11;-2.50;99.90
19930;DHT22;10127;47.780;9.606;2024-01-16T01:42:38;-2.60;99.90
19930;DHT22;10127;47.780;9.606;2024-01-16T01:45:03;-2.70;99.90
19930;DHT22;10127;47.780;9.606;2024-01-16T01:47:30;-2.50;99.90
19930;DHT22;10127;47.780;9.606;2024-01-16T01:49:56;-2.50;99.90
19930;DHT22;10127;47.780;9.606;2024-01-16T01:52:21;-2.50;99.90
19930;DHT22;10127;47.780;9.606;2024-01-16T01:54:47;-2.40;99.90
19930;DHT22;10127;47.780;9.606;2024-01-16T01:57:14;-2.60;99.90
19930;DHT22;10127;47.780;9.606;2024-01-16T01:59:40;-2.80;99.90
19930;DHT22;10127;47.780;9.606;2024-01-16T02:02:05;-2.90;99.90
19930;DHT22;10127;47.780;9.606;2024-01-16T02:04:31;-2.80;99.90
19930;DHT22;10127;47.780;9.606;2024-01-16T02:06:58;-2.60;99.90
19930;DHT22;10127;47.780;9.606;2024-01-16T02:09:24;-2.40;99.90
19930;DHT22;10127;47.780;9.606;2024-01-16T02:11:49;-2.40;99.90
19930;DHT22;10127;47.780;9.606;2024-01-16T02:14:15;-2.40;99.90
19930;DHT22;10127;47.780;9.606;2024-01-16T02:16:42;-2.40;99.90
19930;DHT22;10127;47.780;9.606;2024-01-16T02:19:10;-2.30;99.90
19930;DHT22;10127;47.780;9.606;2024-01-16T02:21:48;-2.40;99.90
19930;DHT22;10127;47.780;9.606;2024-01-16T02:24:15;-2.50;99.90
19930;DHT22;10127;47.780;9.606;2024-01-16T02:26:42;-2.50;99.90
19930;DHT22;10127;47.780;9.606;2024-01-16T02:29:08;-2.50;99.90
19930;DHT22;10127;47.780;9.606;2024-01-16T02:31:34;-2.40;99.90
19930;DHT22;10127;47.780;9.606;2024-01-16T02:34:00;-2.40;99.90
19930;DHT22;10127;47.780;9.606;2024-01-16T02:36:27;-2.40;99.90
19930;DHT22;10127;47.780;9.606;2024-01-16T02:38:53;-2.50;99.90
19930;DHT22;10127;47.780;9.606;2024-01-16T02:41:18;-2.40;99.90
19930;DHT22;10127;47.780;9.606;2024-01-16T02:43:45;-2.40;99.90
19930;DHT22;10127;47.780;9.606;2024-01-16T02:46:10;-2.20;99.90
19930;DHT22;10127;47.780;9.606;2024-01-16T02:48:36;-2.30;99.90
19930;DHT22;10127;47.780;9.606;2024-01-16T02:51:03;-2.30;99.90
19930;DHT22;10127;47.780;9.606;2024-01-16T02:53:29;-2.20;99.90
19930;DHT22;10127;47.780;9.606;2024-01-16T02:55:55;-2.20;99.90
19930;DHT22;10127;47.780;9.606;2024-01-16T02:58:27;-2.10;99.90
19930;DHT22;10127;47.780;9.606;2024-01-16T03:00:52;-2.00;99.90
19930;DHT22;10127;47.780;9.606;2024-01-16T03:03:18;-2.00;99.90
19930;DHT22;10127;47.780;9.606;2024-01-16T03:05:44;-2.10;99.90
19930;DHT22;10127;47.780;9.606;2024-01-16T03:08:10;-2.00;99.90
19930;DHT22;10127;47.780;9.606;2024-01-16T03:10:35;-2.00;99.90
19930;DHT22;10127;47.780;9.606;2024-01-16T03:13:01;-2.00;99.90
19930;DHT22;10127;47.780;9.606;2024-01-16T03:15:27;-1.80;99.90
19930;DHT22;10127;47.780;9.606;2024-01-16T03:17:52;-1.80;99.90
19930;DHT22;10127;47.780;9.606;2024-01-16T03:20:18;-1.70;99.90
19930;DHT22;10127;47.780;9.606;2024-01-16T03:22:44;-1.80;99.90
19930;DHT22;10127;47.780;9.606;2024-01-16T03:25:10;-2.10;99.90
19930;DHT22;10127;47.780;9.606;2024-01-16T03:27:38;-1.90;99.90
19930;DHT22;10127;47.780;9.606;2024-01-16T03:30:05;-1.80;99.90
19930;DHT22;10127;47.780;9.606;2024-01-16T03:32:31;-1.80;99.90
19930;DHT22;10127;47.780;9.606;2024-01-16T03:34:57;-1.80;99.90
19930;DHT22;10127;47.780;9.606;2024-01-16T03:37:23;-1.80;99.90
19930;DHT22;10127;47.780;9.606;2024-01-16T03:39:48;-1.90;99.90
19930;DHT22;10127;47.780;9.606;2024-01-16T03:42:15;-1.70;99.90
19930;DHT22;10127;47.780;9.606;2024-01-16T03:44:41;-1.70;99.90
19930;DHT22;10127;47.780;9.606;2024-01-16T03:47:07;-1.90;99.90
19930;DHT22;10127;47.780;9.606;2024-01-16T03:49:33;-2.00;99.90
19930;DHT22;10127;47.780;9.606;2024-01-16T03:51:59;-2.00;99.90
19930;DHT22;10127;47.780;9.606;2024-01-16T03:54:24;-2.10;99.90
19930;DHT22;10127;47.780;9.606;2024-01-16T03:56:51;-2.30;99.90
19930;DHT22;10127;47.780;9.606;2024-01-16T03:59:16;-2.20;99.90
19930;DHT22;10127;47.780;9.606;2024-01-16T04:01:42;-2.10;99.90
19930;DHT22;10127;47.780;9.606;2024-01-16T04:04:10;-2.30;99.90
19930;DHT22;10127;47.780;9.606;2024-01-16T04:06:35;-2.40;99.90
19930;DHT22;10127;47.780;9.606;2024-01-16T04:09:02;-2.30;99.90
19930;DHT22;10127;47.780;9.606;2024-01-16T04:11:28;-2.40;99.90
19930;DHT22;10127;47.780;9.606;2024-01-16T04:13:54;-2.50;99.90
19930;DHT22;10127;47.780;9.606;2024-01-16T04:16:20;-2.50;99.90
19930;DHT22;10127;47.780;9.606;2024-01-16T04:18:46;-2.50;99.90
19930;DHT22;10127;47.780;9.606;2024-01-16T04:21:11;-2.50;99.90
19930;DHT22;10127;47.780;9.606;2024-01-16T04:23:37;-2.60;99.90
19930;DHT22;10127;47.780;9.606;2024-01-16T04:26:02;-2.50;99.90
19930;DHT22;10127;47.780;9.606;2024-01-16T04:28:28;-2.40;99.90
19930;DHT22;10127;47.780;9.606;2024-01-16T04:30:54;-2.50;99.90
19930;DHT22;10127;47.780;9.606;2024-01-16T04:33:19;-2.60;99.90
19930;DHT22;10127;47.780;9.606;2024-01-16T04:35:45;-2.20;99.90
19930;DHT22;10127;47.780;9.606;2024-01-16T04:38:17;-2.30;99.90
19930;DHT22;10127;47.780;9.606;2024-01-16T04:40:42;-2.20;99.90
19930;DHT22;10127;47.780;9.606;2024-01-16T04:43:08;-2.10;99.90
19930;DHT22;10127;47.780;9.606;2024-01-16T04:45:33;-2.30;99.90
19930;DHT22;10127;47.780;9.606;2024-01-16T04:47:59;-2.30;99.90
19930;DHT22;10127;47.780;9.606;2024-01-16T04:50:24;-2.40;99.90
19930;DHT22;10127;47.780;9.606;2024-01-16T04:52:57;-2.40;99.90
19930;DHT22;10127;47.780;9.606;2024-01-16T04:55:22;-2.50;99.90
19930;DHT22;10127;47.780;9.606;2024-01-16T04:57:48;-2.50;99.90
19930;DHT22;10127;47.780;9.606;2024-01-16T05:00:14;-2.60;99.90
19930;DHT22;10127;47.780;9.606;2024-01-16T05:02:39;-2.60;99.90
19930;DHT22;10127;47.780;9.606;2024-01-16T05:05:06;-2.70;99.90
19930;DHT22;10127;47.780;9.606;2024-01-16T05:07:31;-2.70;99.90
19930;DHT22;10127;47.780;9.606;2024-01-16T05:09:57;-2.80;99.90
19930;DHT22;10127;47.780;9.606;2024-01-16T05:12:23;-2.80;99.90
19930;DHT22;10127;47.780;9.606;2024-01-16T05:14:49;-2.80;99.90
19930;DHT22;10127;47.780;9.606;2024-01-16T05:17:14;-2.70;99.90
19930;DHT22;10127;47.780;9.606;2024-01-16T05:19:40;-2.60;99.90
19930;DHT22;10127;47.780;9.606;2024-01-16T05:22:05;-2.60;99.90
19930;DHT22;10127;47.780;9.606;2024-01-16T05:24:38;-2.60;99.90
19930;DHT22;10127;47.780;9.606;2024-01-16T05:27:04;-2.60;99.90
19930;DHT22;10127;47.780;9.606;2024-01-16T05:29:43;-2.60;99.90
19930;DHT22;10127;47.780;9.606;2024-01-16T05:32:08;-2.60;99.90
19930;DHT22;10127;47.780;9.606;2024-01-16T05:34:34;-2.20;99.90
19930;DHT22;10127;47.780;9.606;2024-01-16T05:36:59;-1.60;99.90
19930;DHT22;10127;47.780;9.606;2024-01-16T05:39:25;-1.60;99.90
19930;DHT22;10127;47.780;9.606;2024-01-16T05:41:50;-1.60;99.90
19930;DHT22;10127;47.780;9.606;2024-01-16T05:44:16;-1.40;99.90
19930;DHT22;10127;47.780;9.606;2024-01-16T05:46:42;-1.60;99.90
19930;DHT22;10127;47.780;9.606;2024-01-16T05:49:08;-1.60;99.90
19930;DHT22;10127;47.780;9.606;2024-01-16T05:51:33;-1.50;99.90
19930;DHT22;10127;47.780;9.606;2024-01-16T05:53:59;-1.80;99.90
19930;DHT22;10127;47.780;9.606;2024-01-16T05:56:25;-2.30;99.90
19930;DHT22;10127;47.780;9.606;2024-01-16T05:58:58;-2.40;99.90
19930;DHT22;10127;47.780;9.606;2024-01-16T06:01:30;-2.70;99.90
19930;DHT22;10127;47.780;9.606;2024-01-16T06:03:56;-2.60;99.90
19930;DHT22;10127;47.780;9.606;2024-01-16T06:06:22;-2.20;99.90
19930;DHT22;10127;47.780;9.606;2024-01-16T06:08:47;-2.40;99.90
19930;DHT22;10127;47.780;9.606;2024-01-16T06:11:13;-2.00;99.90
19930;DHT22;10127;47.780;9.606;2024-01-16T06:13:39;-1.60;99.90
19930;DHT22;10127;47.780;9.606;2024-01-16T06:16:08;-1.50;99.90
19930;DHT22;10127;47.780;9.606;2024-01-16T06:18:34;-1.60;99.90
19930;DHT22;10127;47.780;9.606;2024-01-16T06:21:06;-2.00;99.90
19930;DHT22;10127;47.780;9.606;2024-01-16T06:23:38;-2.20;99.90
19930;DHT22;10127;47.780;9.606;2024-01-16T06:26:03;-2.50;99.90
19930;DHT22;10127;47.780;9.606;2024-01-16T06:28:29;-2.40;99.90
19930;DHT22;10127;47.780;9.606;2024-01-16T06:30:54;-2.50;99.90
19930;DHT22;10127;47.780;9.606;2024-01-16T06:33:20;-2.60;99.90
19930;DHT22;10127;47.780;9.606;2024-01-16T06:35:46;-2.70;99.90
19930;DHT22;10127;47.780;9.606;2024-01-16T06:38:11;-2.50;99.90
19930;DHT22;10127;47.780;9.606;2024-01-16T06:40:37;-2.30;99.90
19930;DHT22;10127;47.780;9.606;2024-01-16T06:43:03;-2.60;99.90
19930;DHT22;10127;47.780;9.606;2024-01-16T06:45:28;-2.30;99.90
19930;DHT22;10127;47.780;9.606;2024-01-16T06:47:54;-2.30;99.90
19930;DHT22;10127;47.780;9.606;2024-01-16T06:50:20;-2.40;99.90
19930;DHT22;10127;47.780;9.606;2024-01-16T06:52:45;-2.60;99.90
19930;DHT22;10127;47.780;9.606;2024-01-16T06:55:11;-2.80;99.90
19930;DHT22;10127;47.780;9.606;2024-01-16T06:57:43;-2.60;99.90
19930;DHT22;10127;47.780;9.606;2024-01-16T07:00:09;-2.60;99.90
19930;DHT22;10127;47.780;9.606;2024-01-16T07:02:34;-2.80;99.90
19930;DHT22;10127;47.780;9.606;2024-01-16T07:05:00;-3.30;99.90
19930;DHT22;10127;47.780;9.606;2024-01-16T07:07:26;-3.00;99.90
19930;DHT22;10127;47.780;9.606;2024-01-16T07:09:51;-3.00;99.90
19930;DHT22;10127;47.780;9.606;2024-01-16T07:12:17;-3.00;99.90
19930;DHT22;10127;47.780;9.606;2024-01-16T07:14:42;-2.60;99.90
19930;DHT22;10127;47.780;9.606;2024-01-16T07:17:08;-2.30;99.90
19930;DHT22;10127;47.780;9.606;2024-01-16T07:19:33;-2.40;99.90
19930;DHT22;10127;47.780;9.606;2024-01-16T07:22:00;-2.60;99.90
19930;DHT22;10127;47.780;9.606;2024-01-16T07:24:25;-2.80;99.90
19930;DHT22;10127;47.780;9.606;2024-01-16T07:26:51;-2.80;99.90
19930;DHT22;10127;47.780;9.606;2024-01-16T07:29:19;-2.70;99.90
19930;DHT22;10127;47.780;9.606;2024-01-16T07:31:45;-2.60;99.90
19930;DHT22;10127;47.780;9.606;2024-01-16T07:34:11;-2.70;99.90
19930;DHT22;10127;47.780;9.606;2024-01-16T07:36:37;-2.70;99.90
19930;DHT22;10127;47.780;9.606;2024-01-16T07:39:02;-2.70;99.90
19930;DHT22;10127;47.780;9.606;2024-01-16T07:41:29;-2.50;99.90
19930;DHT22;10127;47.780;9.606;2024-01-16T07:43:54;-2.70;99.90
19930;DHT22;10127;47.780;9.606;2024-01-16T07:46:20;-2.80;99.90
19930;DHT22;10127;47.780;9.606;2024-01-16T07:48:46;-2.90;99.90
19930;DHT22;10127;47.780;9.606;2024-01-16T07:51:11;-2.90;99.90
19930;DHT22;10127;47.780;9.606;2024-01-16T07:53:37;-3.00;99.90
19930;DHT22;10127;47.780;9.606;2024-01-16T07:56:02;-3.10;99.90
19930;DHT22;10127;47.780;9.606;2024-01-16T07:58:28;-3.10;99.90
19930;DHT22;10127;47.780;9.606;2024-01-16T08:00:54;-3.30;99.90
19930;DHT22;10127;47.780;9.606;2024-01-16T08:03:19;-3.10;99.90
19930;DHT22;10127;47.780;9.606;2024-01-16T08:05:45;-2.80;99.90
19930;DHT22;10127;47.780;9.606;2024-01-16T08:08:10;-2.70;99.90
19930;DHT22;10127;47.780;9.606;2024-01-16T08:10:37;-2.50;99.90
19930;DHT22;10127;47.780;9.606;2024-01-16T08:13:03;-2.50;99.90
19930;DHT22;10127;47.780;9.606;2024-01-16T08:15:28;-2.20;99.90
19930;DHT22;10127;47.780;9.606;2024-01-16T08:17:54;-1.80;99.90
19930;DHT22;10127;47.780;9.606;2024-01-16T08:20:20;-1.80;99.90
19930;DHT22;10127;47.780;9.606;2024-01-16T08:22:45;-1.70;99.90
19930;DHT22;10127;47.780;9.606;2024-01-16T08:25:11;-1.70;99.90
19930;DHT22;10127;47.780;9.606;2024-01-16T08:27:36;-1.90;99.90
19930;DHT22;10127;47.780;9.606;2024-01-16T08:30:06;-2.00;99.90
19930;DHT22;10127;47.780;9.606;2024-01-16T08:32:33;-1.80;99.90
19930;DHT22;10127;47.780;9.606;2024-01-16T08:34:59;-1.80;99.90
19930;DHT22;10127;47.780;9.606;2024-01-16T08:37:24;-1.60;99.90
19930;DHT22;10127;47.780;9.606;2024-01-16T08:39:50;-1.30;99.90
19930;DHT22;10127;47.780;9.606;2024-01-16T08:42:16;-1.30;99.90
19930;DHT22;10127;47.780;9.606;2024-01-16T08:44:43;-1.40;99.90
19930;DHT22;10127;47.780;9.606;2024-01-16T08:47:09;-1.40;99.90
19930;DHT22;10127;47.780;9.606;2024-01-16T08:49:34;-1.00;99.90
19930;DHT22;10127;47.780;9.606;2024-01-16T08:52:00;-0.90;99.90
19930;DHT22;10127;47.780;9.606;2024-01-16T08:54:27;-0.80;99.90
19930;DHT22;10127;47.780;9.606;2024-01-16T08:56:53;-0.60;99.90
19930;DHT22;10127;47.780;9.606;2024-01-16T08:59:19;-0.80;99.90
19930;DHT22;10127;47.780;9.606;2024-01-16T09:01:44;-0.70;99.90
19930;DHT22;10127;47.780;9.606;2024-01-16T09:04:10;-0.70;99.90
19930;DHT22;10127;47.780;9.606;2024-01-16T09:06:36;-0.70;99.90
19930;DHT22;10127;47.780;9.606;2024-01-16T09:09:01;-0.70;99.90
19930;DHT22;10127;47.780;9.606;2024-01-16T09:11:29;-0.70;99.90
19930;DHT22;10127;47.780;9.606;2024-01-16T09:13:55;-0.70;99.90
19930;DHT22;10127;47.780;9.606;2024-01-16T09:16:20;-0.60;99.90
19930;DHT22;10127;47.780;9.606;2024-01-16T09:18:46;-0.50;99.90
19930;DHT22;10127;47.780;9.606;2024-01-16T09:21:12;-0.40;99.90
19930;DHT22;10127;47.780;9.606;2024-01-16T09:23:38;-0.20;99.90
19930;DHT22;10127;47.780;9.606;2024-01-16T09:26:03;-0.20;99.90
19930;DHT22;10127;47.780;9.606;2024-01-16T09:28:29;-0.10;99.90
19930;DHT22;10127;47.780;9.606;2024-01-16T09:30:55;-0.20;99.90
19930;DHT22;10127;47.780;9.606;2024-01-16T09:33:23;-0.20;99.90
19930;DHT22;10127;47.780;9.606;2024-01-16T09:35:51;-0.10;99.90
19930;DHT22;10127;47.780;9.606;2024-01-16T09:38:16;0.20;99.90
19930;DHT22;10127;47.780;9.606;2024-01-16T09:40:42;0.30;99.90
19930;DHT22;10127;47.780;9.606;2024-01-16T09:43:07;0.10;99.90
19930;DHT22;10127;47.780;9.606;2024-01-16T09:45:38;0.20;99.90
19930;DHT22;10127;47.780;9.606;2024-01-16T09:48:05;0.20;99.90
19930;DHT22;10127;47.780;9.606;2024-01-16T09:50:30;0.60;99.90
19930;DHT22;10127;47.780;9.606;2024-01-16T09:52:56;0.50;99.90
19930;DHT22;10127;47.780;9.606;2024-01-16T09:55:22;0.50;99.90
19930;DHT22;10127;47.780;9.606;2024-01-16T09:57:52;0.60;99.90
19930;DHT22;10127;47.780;9.606;2024-01-16T10:00:18;0.50;99.90
19930;DHT22;10127;47.780;9.606;2024-01-16T10:02:45;0.30;99.90
19930;DHT22;10127;47.780;9.606;2024-01-16T10:05:11;0.50;99.90
19930;DHT22;10127;47.780;9.606;2024-01-16T10:07:46;0.90;99.90
19930;DHT22;10127;47.780;9.606;2024-01-16T10:10:12;0.90;99.90
19930;DHT22;10127;47.780;9.606;2024-01-16T10:12:38;1.10;99.90
19930;DHT22;10127;47.780;9.606;2024-01-16T10:15:08;1.10;99.90
19930;DHT22;10127;47.780;9.606;2024-01-16T10:17:37;0.80;99.90
19930;DHT22;10127;47.780;9.606;2024-01-16T10:20:03;1.10;99.90
19930;DHT22;10127;47.780;9.606;2024-01-16T10:22:32;1.10;99.90
19930;DHT22;10127;47.780;9.606;2024-01-16T10:25:07;1.10;99.90
19930;DHT22;10127;47.780;9.606;2024-01-16T10:27:34;1.30;99.90
19930;DHT22;10127;47.780;9.606;2024-01-16T10:30:00;1.40;99.90
19930;DHT22;10127;47.780;9.606;2024-01-16T10:32:41;1.40;99.90
19930;DHT22;10127;47.780;9.606;2024-01-16T10:35:09;1.40;99.90
19930;DHT22;10127;47.780;9.606;2024-01-16T10:37:51;1.40;99.90
19930;DHT22;10127;47.780;9.606;2024-01-16T10:40:24;1.50;99.90
19930;DHT22;10127;47.780;9.606;2024-01-16T10:43:01;1.50;99.90
19930;DHT22;10127;47.780;9.606;2024-01-16T10:45:29;1.60;99.90
19930;DHT22;10127;47.780;9.606;2024-01-16T10:48:02;1.60;99.90
19930;DHT22;10127;47.780;9.606;2024-01-16T10:50:28;1.80;99.90
19930;DHT22;10127;47.780;9.606;2024-01-16T10:52:54;1.80;99.90
19930;DHT22;10127;47.780;9.606;2024-01-16T10:55:21;1.90;99.90
19930;DHT22;10127;47.780;9.606;2024-01-16T10:57:48;2.00;99.90
19930;DHT22;10127;47.780;9.606;2024-01-16T11:00:17;2.20;99.90
19930;DHT22;10127;47.780;9.606;2024-01-16T11:05:17;2.20;99.90
19930;DHT22;10127;47.780;9.606;2024-01-16T11:07:44;2.40;99.90
19930;DHT22;10127;47.780;9.606;2024-01-16T11:10:10;2.30;99.90
19930;DHT22;10127;47.780;9.606;2024-01-16T11:12:38;2.40;99.90
19930;DHT22;10127;47.780;9.606;2024-01-16T11:15:06;2.50;99.90
19930;DHT22;10127;47.780;9.606;2024-01-16T11:17:34;2.50;99.90
19930;DHT22;10127;47.780;9.606;2024-01-16T11:20:04;2.30;99.90
19930;DHT22;10127;47.780;9.606;2024-01-16T11:22:37;2.20;99.90
19930;DHT22;10127;47.780;9.606;2024-01-16T11:25:10;2.10;99.90
19930;DHT22;10127;47.780;9.606;2024-01-16T11:27:37;2.10;99.90
19930;DHT22;10127;47.780;9.606;2024-01-16T11:30:08;2.20;99.90
19930;DHT22;10127;47.780;9.606;2024-01-16T11:32:39;2.40;99.90
19930;DHT22;10127;47.780;9.606;2024-01-16T11:35:06;2.40;99.90
19930;DHT22;10127;47.780;9.606;2024-01-16T11:37:33;2.40;99.90
19930;DHT22;10127;47.780;9.606;2024-01-16T11:42:43;2.60;99.90
19930;DHT22;10127;47.780;9.606;2024-01-16T11:48:15;2.40;99.90
19930;DHT22;10127;47.780;9.606;2024-01-16T11:50:42;2.60;99.90
19930;DHT22;10127;47.780;9.606;2024-01-16T11:53:08;2.50;99.90
19930;DHT22;10127;47.780;9.606;2024-01-16T11:55:35;2.40;99.90
19930;DHT22;10127;47.780;9.606;2024-01-16T11:58:34;2.50;99.90
19930;DHT22;10127;47.780;9.606;2024-01-16T12:01:05;2.70;99.90
19930;DHT22;10127;47.780;9.606;2024-01-16T12:03:32;2.90;99.90
19930;DHT22;10127;47.780;9.606;2024-01-16T12:05:59;3.00;99.90
19930;DHT22;10127;47.780;9.606;2024-01-16T12:08:25;3.10;99.90
19930;DHT22;10127;47.780;9.606;2024-01-16T12:10:51;3.20;99.90
19930;DHT22;10127;47.780;9.606;2024-01-16T12:13:17;3.20;99.90
19930;DHT22;10127;47.780;9.606;2024-01-16T12:15:43;3.10;99.90
19930;DHT22;10127;47.780;9.606;2024-01-16T12:18:09;2.90;99.90
19930;DHT22;10127;47.780;9.606;2024-01-16T12:20:36;3.40;99.90
19930;DHT22;10127;47.780;9.606;2024-01-16T12:23:06;3.50;99.90
19930;DHT22;10127;47.780;9.606;2024-01-16T12:25:37;3.40;99.90
19930;DHT22;10127;47.780;9.606;2024-01-16T12:28:04;3.70;99.90
19930;DHT22;10127;47.780;9.606;2024-01-16T12:30:31;3.60;99.90
19930;DHT22;10127;47.780;9.606;2024-01-16T12:33:08;3.10;99.90
19930;DHT22;10127;47.780;9.606;2024-01-16T12:35:41;3.00;99.90
19930;DHT22;10127;47.780;9.606;2024-01-16T12:38:11;3.40;99.90
19930;DHT22;10127;47.780;9.606;2024-01-16T12:40:49;3.40;99.90
19930;DHT22;10127;47.780;9.606;2024-01-16T12:43:18;3.20;99.90
19930;DHT22;10127;47.780;9.606;2024-01-16T12:45:44;3.20;99.90
19930;DHT22;10127;47.780;9.606;2024-01-16T12:48:10;3.30;99.90
19930;DHT22;10127;47.780;9.606;2024-01-16T12:50:36;3.20;99.90
19930;DHT22;10127;47.780;9.606;2024-01-16T12:55:29;3.40;99.90
19930;DHT22;10127;47.780;9.606;2024-01-16T12:58:20;3.30;99.90
19930;DHT22;10127;47.780;9.606;2024-01-16T13:00:47;3.50;99.90
19930;DHT22;10127;47.780;9.606;2024-01-16T13:03:21;3.40;99.90
19930;DHT22;10127;47.780;9.606;2024-01-16T13:05:55;3.40;99.90
19930;DHT22;10127;47.780;9.606;2024-01-16T13:08:21;3.30;99.90
19930;DHT22;10127;47.780;9.606;2024-01-16T13:11:05;3.20;99.90
19930;DHT22;10127;47.780;9.606;2024-01-16T13:13:31;3.40;99.90
19930;DHT22;10127;47.780;9.606;2024-01-16T13:15:57;3.30;99.90
19930;DHT22;10127;47.780;9.606;2024-01-16T13:18:24;3.40;99.90
19930;DHT22;10127;47.780;9.606;2024-01-16T13:20:51;3.50;99.90
19930;DHT22;10127;47.780;9.606;2024-01-16T13:23:18;3.50;99.90
19930;DHT22;10127;47.780;9.606;2024-01-16T13:25:44;3.60;99.90
19930;DHT22;10127;47.780;9.606;2024-01-16T13:28:13;3.80;99.90
19930;DHT22;10127;47.780;9.606;2024-01-16T13:30:43;3.90;99.90
19930;DHT22;10127;47.780;9.606;2024-01-16T13:33:09;4.00;99.90
19930;DHT22;10127;47.780;9.606;2024-01-16T13:35:37;4.00;99.90
19930;DHT22;10127;47.780;9.606;2024-01-16T13:38:04;4.00;99.90
19930;DHT22;10127;47.780;9.606;2024-01-16T13:40:30;4.10;99.90
19930;DHT22;10127;47.780;9.606;2024-01-16T13:42:56;4.00;99.90
19930;DHT22;10127;47.780;9.606;2024-01-16T13:45:22;3.90;99.90
19930;DHT22;10127;47.780;9.606;2024-01-16T13:47:48;4.00;99.90
19930;DHT22;10127;47.780;9.606;2024-01-16T13:50:14;4.20;99.90
19930;DHT22;10127;47.780;9.606;2024-01-16T13:52:39;4.00;99.90
19930;DHT22;10127;47.780;9.606;2024-01-16T13:55:06;4.00;99.90
19930;DHT22;10127;47.780;9.606;2024-01-16T13:57:32;4.00;99.90
19930;DHT22;10127;47.780;9.606;2024-01-16T13:59:58;4.10;99.90
19930;DHT22;10127;47.780;9.606;2024-01-16T14:02:24;4.10;99.90
19930;DHT22;10127;47.780;9.606;2024-01-16T14:04:50;4.10;99.90
19930;DHT22;10127;47.780;9.606;2024-01-16T14:07:16;4.00;99.90
19930;DHT22;10127;47.780;9.606;2024-01-16T14:09:41;4.00;99.90
19930;DHT22;10127;47.780;9.606;2024-01-16T14:12:08;4.20;99.90
19930;DHT22;10127;47.780;9.606;2024-01-16T14:14:34;4.60;99.90
19930;DHT22;10127;47.780;9.606;2024-01-16T14:17:00;4.70;99.90
19930;DHT22;10127;47.780;9.606;2024-01-16T14:19:26;4.60;99.90
19930;DHT22;10127;47.780;9.606;2024-01-16T14:21:52;4.70;99.90
19930;DHT22;10127;47.780;9.606;2024-01-16T14:24:18;4.80;99.90
19930;DHT22;10127;47.780;9.606;2024-01-16T14:26:44;4.70;99.90
19930;DHT22;10127;47.780;9.606;2024-01-16T14:29:17;4.70;99.90
19930;DHT22;10127;47.780;9.606;2024-01-16T14:31:43;4.80;99.90
19930;DHT22;10127;47.780;9.606;2024-01-16T14:34:12;4.80;99.90
19930;DHT22;10127;47.780;9.606;2024-01-16T14:36:43;4.80;99.90
19930;DHT22;10127;47.780;9.606;2024-01-16T14:39:09;4.50;99.90
19930;DHT22;10127;47.780;9.606;2024-01-16T14:41:42;4.30;99.90
19930;DHT22;10127;47.780;9.606;2024-01-16T14:44:09;4.30;99.90
19930;DHT22;10127;47.780;9.606;2024-01-16T14:46:35;4.30;99.90
19930;DHT22;10127;47.780;9.606;2024-01-16T14:49:01;4.30;99.90
19930;DHT22;10127;47.780;9.606;2024-01-16T14:51:27;4.30;99.90
19930;DHT22;10127;47.780;9.606;2024-01-16T14:53:54;4.40;99.90
19930;DHT22;10127;47.780;9.606;2024-01-16T14:56:21;4.30;99.90
19930;DHT22;10127;47.780;9.606;2024-01-16T14:58:46;4.30;99.90
19930;DHT22;10127;47.780;9.606;2024-01-16T15:01:12;4.30;99.90
19930;DHT22;10127;47.780;9.606;2024-01-16T15:03:37;4.30;99.90
19930;DHT22;10127;47.780;9.606;2024-01-16T15:06:04;4.10;99.90
19930;DHT22;10127;47.780;9.606;2024-01-16T15:08:37;4.00;99.90
19930;DHT22;10127;47.780;9.606;2024-01-16T15:11:02;3.80;99.90
19930;DHT22;10127;47.780;9.606;2024-01-16T15:13:37;3.80;99.90
19930;DHT22;10127;47.780;9.606;2024-01-16T15:16:10;3.70;99.90
19930;DHT22;10127;47.780;9.606;2024-01-16T15:18:36;3.50;99.90
19930;DHT22;10127;47.780;9.606;2024-01-16T15:21:02;3.40;99.90
19930;DHT22;10127;47.780;9.606;2024-01-16T15:23:28;3.30;99.90
19930;DHT22;10127;47.780;9.606;2024-01-16T15:25:53;3.30;99.90
19930;DHT22;10127;47.780;9.606;2024-01-16T15:28:20;3.20;99.90
19930;DHT22;10127;47.780;9.606;2024-01-16T15:30:45;3.20;99.90
19930;DHT22;10127;47.780;9.606;2024-01-16T15:33:12;3.00;99.90
19930;DHT22;10127;47.780;9.606;2024-01-16T15:35:39;3.00;99.90
19930;DHT22;10127;47.780;9.606;2024-01-16T15:38:04;3.00;99.90
19930;DHT22;10127;47.780;9.606;2024-01-16T15:40:30;2.80;99.90
19930;DHT22;10127;47.780;9.606;2024-01-16T15:42:56;2.80;99.90
19930;DHT22;10127;47.780;9.606;2024-01-16T15:45:22;2.70;99.90